Date,TemperatureHighF,TemperatureAvgF,TemperatureLowF,DewpointHighF,DewpointAvgF,DewpointLowF,HumidityHigh,HumidityAvg,HumidityLow,PressureMaxIn,PressureMinIn,WindSpeedMaxMPH,WindSpeedAvgMPH,GustSpeedMaxMPH,PrecipitationSumIn
2013-1-1,35.4,27.9,17.4,32.7,25.0,14.2,92,89,85,30.32,30.03,4,1,4,0.00
2013-1-2,35.8,23.6,13.6,25.0,17.4,10.6,90,78,57,30.31,30.17,10,1,10,0.00
2013-1-3,42.6,28.9,18.3,31.1,22.5,14.9,89,78,60,30.45,30.26,4,-336,4,0.00
2013-1-4,45.9,31.2,18.5,30.0,22.9,14.7,89,72,50,30.50,30.30,12,-109,12,0.00
2013-1-5,41.7,33.6,21.2,33.8,27.6,16.3,85,78,71,30.34,30.12,12,3,12,0.00
2013-1-6,42.6,30.8,19.6,29.7,23.9,14.4,86,76,58,30.43,30.19,15,2,15,0.00
2013-1-7,50.9,33.5,16.9,33.1,23.7,12.6,85,69,48,30.40,30.11,14,-133,14,0.00
2013-1-8,55.2,42.6,27.5,44.2,32.8,21.2,88,69,52,30.17,30.00,13,-137,13,0.38
2013-1-9,56.7,49.4,42.8,46.0,41.4,35.1,91,75,56,30.37,30.17,11,2,11,0.03
2013-1-10,53.8,48.6,42.8,50.9,44.7,35.4,92,87,57,30.25,29.79,15,4,15,0.41
2013-1-11,66.0,55.2,45.7,50.9,46.7,42.6,91,75,51,29.86,29.68,23,-6,23,0.00
2013-1-12,54.9,41.8,27.9,47.1,35.1,24.8,89,77,59,29.99,29.75,13,2,13,0.35
2013-1-13,27.9,22.4,14.5,24.8,18.4,10.6,89,84,80,30.40,29.96,13,2,13,0.00
2013-1-14,30.7,20.3,12.4,21.0,14.3,8.8,86,78,66,30.52,30.36,8,1,8,0.03
2013-1-15,33.3,23.5,16.2,21.0,16.8,11.7,84,76,54,30.39,30.16,6,0,6,0.00
2013-1-16,41.4,25.9,13.1,27.5,18.7,9.5,88,75,55,30.25,30.08,16,2,16,0.00
2013-1-17,45.1,31.3,21.2,34.2,24.5,16.7,88,76,57,30.51,30.19,11,1,11,0.00
2013-1-18,58.1,38.9,19.9,36.0,26.3,16.0,88,64,32,30.53,30.15,20,4,20,0.00
2013-1-19,62.8,47.9,34.9,40.5,33.5,26.6,79,58,42,30.19,30.02,22,5,22,0.00
2013-1-20,53.1,39.0,27.9,34.2,24.3,15.8,81,58,34,30.32,30.14,7,-291,7,0.00
2013-1-21,34.3,26.1,19.6,18.9,14.5,10.9,71,61,52,30.44,30.30,11,-224,11,0.00
2013-1-22,34.5,26.7,20.3,19.8,15.6,11.5,71,63,54,30.39,30.23,8,-16,8,0.00
2013-1-23,58.1,36.2,19.6,43.9,27.3,13.6,83,71,57,30.29,30.09,5,-355,5,0.00
2013-1-24,35.1,30.4,24.1,24.8,16.4,11.3,66,56,49,30.45,30.15,16,4,16,0.00
2013-1-25,49.8,35.5,27.9,32.9,25.7,16.9,82,68,51,30.30,30.11,10,2,10,0.00
2013-1-26,58.3,42.7,27.9,34.2,27.0,21.9,83,57,32,30.29,30.12,11,-64,11,0.00
2013-1-27,55.0,48.3,41.4,51.4,41.7,27.0,88,78,47,30.12,29.86,11,-294,11,0.03
2013-1-28,73.9,65.3,55.0,62.1,58.3,51.4,89,79,62,29.89,29.76,24,-331,24,0.00
2013-1-29,68.5,60.2,47.3,61.2,55.7,44.8,92,85,77,29.77,29.44,24,-1,24,2.01
2013-1-30,47.7,33.3,26.8,45.5,29.2,20.5,92,85,78,30.06,29.42,23,4,23,0.00
2013-1-31,39.0,25.1,13.1,30.7,19.3,6.1,87,78,68,30.51,30.01,19,4,19,0.03
2013-2-1,33.3,21.9,8.8,18.7,11.5,3.0,78,65,51,30.54,30.17,10,2,10,0.00
2013-2-2,50.9,37.1,24.4,37.8,27.7,15.8,80,69,59,30.24,30.10,19,3,19,0.03
2013-2-3,50.2,42.1,34.2,33.3,28.6,24.8,78,60,43,30.30,29.95,18,4,18,0.00
2013-2-4,60.4,47.8,32.2,43.7,34.4,25.3,76,60,48,30.01,29.80,24,3,24,0.00
2013-2-5,61.0,41.7,24.4,42.1,30.5,20.3,88,67,43,30.12,29.93,18,2,18,0.00
2013-2-6,57.7,44.2,27.3,40.1,33.1,22.6,86,66,48,30.18,29.92,12,3,12,0.00
2013-2-7,53.1,47.8,41.0,48.2,42.4,36.9,90,82,72,30.08,29.82,10,2,10,0.22
2013-2-8,48.4,38.1,32.5,37.9,31.7,27.3,88,78,61,30.34,30.08,10,2,10,0.00
2013-2-9,42.3,36.2,32.2,35.1,30.9,27.5,90,81,67,30.25,29.87,15,4,15,0.11
2013-2-10,59.9,48.8,38.1,53.1,38.1,26.6,92,70,39,30.00,29.60,34,9,34,0.11
2013-2-11,50.9,38.7,27.5,33.4,27.6,21.0,78,65,49,30.21,30.00,13,4,13,0.00
2013-2-12,46.2,34.8,22.8,34.0,27.4,18.5,86,75,57,30.18,29.91,5,1,5,0.03
2013-2-13,48.0,37.3,31.8,38.3,32.1,28.6,91,82,63,30.00,29.87,15,3,15,0.22
2013-2-14,54.9,44.3,31.8,38.7,32.3,24.4,80,63,49,30.12,29.88,14,4,14,0.00
2013-2-15,42.6,35.0,22.1,32.0,21.7,12.2,78,59,42,30.35,30.12,17,4,17,0.00
2013-2-16,37.6,30.5,20.8,24.1,20.2,11.8,81,66,52,30.37,30.11,13,-350,13,0.00
2013-2-17,63.1,46.3,29.1,35.8,28.4,19.0,67,51,35,30.11,29.80,12,2,12,0.00
2013-2-18,57.7,47.5,31.6,50.2,38.4,24.1,86,71,56,30.09,29.51,30,6,30,0.06
2013-2-19,42.3,31.7,22.1,24.1,19.2,12.6,77,61,41,30.34,30.09,19,5,19,0.00
2013-2-20,34.5,29.2,22.8,15.8,13.6,10.6,69,52,44,30.36,30.13,8,2,8,0.00
2013-2-21,32.9,30.3,28.2,30.2,25.0,15.8,90,81,52,30.14,29.72,13,4,13,0.00
2013-2-22,34.0,27.3,20.3,31.1,22.4,16.2,91,82,73,30.14,29.81,26,7,26,0.06
2013-2-23,39.7,27.2,16.2,27.9,20.4,12.7,89,76,60,30.12,29.96,13,-353,13,0.19
2013-2-24,53.4,38.2,20.3,36.9,27.9,16.2,87,68,51,30.04,29.85,12,3,12,0.00
2013-2-25,45.5,39.0,34.9,33.3,29.9,27.1,88,71,52,29.92,29.42,20,-171,20,0.46
2013-2-26,35.4,33.0,32.0,32.0,30.2,29.3,91,89,87,29.82,29.33,13,-852,13,0.14
2013-2-27,33.6,32.2,30.9,30.2,28.4,26.8,90,86,80,30.08,29.79,21,-373,21,0.03
2013-2-28,33.6,30.9,28.2,28.2,26.1,24.3,86,82,79,30.23,30.00,15,-211,15,0.00
2013-3-1,30.4,28.9,27.3,26.4,24.8,23.4,87,85,81,30.30,30.14,16,4,16,0.00
2013-3-2,34.0,27.2,18.9,25.5,21.3,14.4,87,78,70,30.38,30.22,12,2,12,0.11
2013-3-3,54.1,37.7,18.7,33.3,26.1,14.4,86,65,43,30.25,29.82,12,3,12,0.00
2013-3-4,64.4,49.2,38.3,46.4,37.2,27.9,83,64,50,29.82,29.59,13,4,13,0.00
2013-3-5,42.8,36.5,29.7,35.1,26.9,21.0,87,69,56,30.29,29.81,35,10,35,0.06
2013-3-6,45.9,34.4,25.7,29.3,23.1,17.4,73,63,51,30.42,30.26,13,2,13,0.00
2013-3-7,60.6,45.6,32.0,34.5,29.1,23.4,72,54,33,30.29,30.10,13,3,13,0.00
2013-3-8,57.9,47.7,36.3,38.7,34.4,29.5,78,61,47,30.27,30.04,13,4,13,0.06
2013-3-9,71.4,56.6,44.8,54.3,45.6,37.6,89,68,43,30.05,29.67,20,4,20,0.90
2013-3-10,57.4,47.7,32.0,54.3,44.5,29.5,92,89,77,29.93,29.59,24,7,24,0.89
2013-3-11,42.8,32.9,28.0,33.8,27.4,22.6,90,81,62,30.06,29.86,24,9,24,0.00
2013-3-12,53.1,38.6,24.6,35.4,27.6,20.5,87,67,46,30.31,30.02,15,-350,15,0.00
2013-3-13,48.6,36.8,26.2,31.1,24.8,19.8,77,63,44,30.48,30.30,14,2,14,0.00
2013-3-14,71.1,48.7,26.4,45.5,33.4,20.8,80,58,38,30.38,30.01,23,4,23,0.00
2013-3-15,80.8,61.1,37.9,52.2,44.6,32.5,86,58,33,30.10,29.68,21,5,21,0.00
2013-3-16,65.5,56.2,43.3,50.2,43.7,36.7,77,63,53,29.93,29.69,15,-35,15,0.00
2013-3-17,43.3,39.9,37.6,39.0,36.9,34.5,91,89,78,29.97,29.68,13,-11,13,1.55
2013-3-18,53.8,43.2,32.7,43.0,37.2,26.6,92,80,54,30.06,29.67,14,-107,14,0.00
2013-3-19,49.1,38.1,25.5,34.9,26.5,21.4,86,65,39,30.25,30.04,0,-999,0,0.00
2013-3-20,44.2,34.8,25.5,30.0,21.5,14.5,87,61,35,30.36,30.16,0,-999,0,0.00
2013-3-21,36.7,30.2,22.8,27.9,21.6,14.5,89,71,45,30.16,29.90,11,-716,11,0.00
2013-3-22,38.7,34.5,30.7,34.2,31.1,27.9,90,87,83,29.97,29.87,9,-350,9,0.16
2013-3-23,41.2,38.2,34.9,38.8,35.2,32.2,91,89,83,29.95,29.73,8,2,8,0.16
2013-3-24,41.4,33.9,28.2,39.0,31.3,23.7,93,90,83,30.07,29.56,23,2,23,0.30
2013-3-25,33.3,27.8,23.2,27.7,23.2,19.0,88,82,76,30.34,30.05,22,-346,22,0.03
2013-3-26,41.4,31.6,21.6,31.3,25.3,18.1,88,78,64,30.43,30.29,11,-240,11,0.00
2013-3-27,53.6,38.3,21.2,33.4,26.8,17.6,89,66,42,30.39,30.13,7,-462,7,0.00
2013-3-28,69.4,56.4,44.1,50.5,40.8,32.4,67,56,48,30.19,30.03,11,-724,11,0.00
2013-3-29,67.8,57.2,48.7,55.4,48.9,39.2,90,74,59,30.18,30.06,7,1,7,0.17
2013-3-30,67.3,55.1,47.8,58.5,49.5,44.2,90,82,72,30.11,29.81,15,3,15,0.19
2013-3-31,66.7,55.0,43.3,54.5,45.4,38.8,92,72,48,29.97,29.83,13,2,13,0.30
2013-4-1,55.2,45.8,37.4,42.3,35.5,28.4,88,68,55,30.24,29.96,6,1,6,0.00
2013-4-2,41.5,38.7,34.3,32.2,29.6,27.3,79,70,60,30.30,30.17,6,2,6,0.13
2013-4-3,55.2,44.2,30.6,29.3,26.9,22.5,75,53,34,30.30,30.13,15,2,15,0.03
2013-4-4,57.4,47.9,35.8,35.4,32.1,26.8,71,55,40,30.18,29.87,7,1,7,0.00
2013-4-5,70.7,52.1,29.3,46.0,36.7,24.4,86,59,38,30.19,29.94,11,2,11,0.00
2013-4-6,74.5,61.7,51.8,51.1,43.8,36.1,68,52,41,29.95,29.68,21,5,21,0.00
2013-4-7,77.9,65.7,52.0,60.8,53.3,44.6,86,65,46,29.89,29.66,15,3,15,0.00
2013-4-8,74.7,66.7,59.4,62.1,57.6,53.2,81,73,64,29.77,29.66,17,4,17,0.00
2013-4-9,77.4,68.9,61.0,64.6,59.6,55.0,82,73,58,29.78,29.65,10,3,10,0.00
2013-4-10,70.3,53.9,39.4,62.4,49.7,37.0,91,86,68,29.84,29.65,18,5,18,1.25
2013-4-11,48.7,40.2,34.7,38.5,34.6,28.8,92,81,63,29.84,29.71,19,8,19,0.00
2013-4-12,54.9,42.9,32.5,40.6,33.9,28.2,88,72,57,30.03,29.78,24,6,24,0.00
2013-4-13,71.1,53.1,34.0,49.8,40.7,30.6,90,65,45,30.07,29.78,13,2,13,0.00
2013-4-14,81.3,66.9,52.5,56.1,48.9,43.9,79,56,29,29.78,29.46,21,4,21,0.11
2013-4-15,80.2,62.7,52.7,67.1,55.2,45.3,88,77,61,29.85,29.64,11,2,11,0.00
2013-4-16,62.1,52.4,48.0,55.4,48.4,45.1,91,87,77,30.02,29.85,8,2,8,0.00
2013-4-17,83.3,69.3,49.1,70.3,61.0,46.2,94,76,60,29.98,29.56,19,3,19,0.00
2013-4-18,73.9,51.8,38.7,65.5,47.1,31.6,93,84,72,29.92,29.48,24,8,24,1.28
2013-4-19,54.1,43.2,34.2,35.2,31.5,27.0,77,64,46,30.11,29.92,25,10,25,1.28
2013-4-20,66.6,50.5,31.5,45.0,36.5,27.7,89,62,41,30.22,30.07,12,1,12,0.00
2013-4-21,68.9,58.9,49.6,46.0,41.6,38.5,71,54,40,30.28,30.09,17,4,17,0.00
2013-4-22,70.0,59.0,43.3,46.2,41.6,35.4,76,54,36,30.18,29.81,13,2,13,0.00
2013-4-23,60.4,48.3,37.0,50.4,42.5,34.3,90,81,58,30.10,29.82,11,2,11,0.52
2013-4-24,54.9,43.0,34.2,39.7,34.9,28.2,90,75,52,30.31,30.06,15,4,15,0.03
2013-4-25,68.7,51.5,30.0,46.2,37.3,26.4,89,62,38,30.35,30.15,11,2,11,0.00
2013-4-26,59.2,50.2,46.4,45.9,43.1,39.2,91,78,48,30.32,30.12,14,3,14,1.25
2013-4-27,55.2,50.9,47.1,52.2,48.3,44.6,92,91,89,30.14,29.94,9,2,9,0.19
2013-4-28,72.1,57.9,49.3,59.2,50.9,46.6,92,79,54,30.02,29.81,12,2,12,0.00
2013-4-29,85.5,68.6,49.1,66.7,56.2,45.5,91,67,41,29.88,29.67,17,3,17,0.00
2013-4-30,84.4,72.0,55.6,61.3,54.5,48.7,88,57,34,29.83,29.72,20,3,20,0.00
2013-5-1,83.7,70.3,54.5,64.9,57.9,47.8,83,66,49,30.02,29.83,13,2,13,0.00
2013-5-2,63.9,49.6,35.6,59.0,44.8,32.7,89,84,79,30.23,30.00,12,2,12,0.19
2013-5-3,37.2,34.4,33.1,34.9,31.9,30.4,92,91,89,30.22,29.89,13,3,13,0.70
2013-5-4,46.9,39.5,33.3,39.9,35.5,30.9,93,86,74,29.96,29.83,5,1,5,0.27
2013-5-5,60.6,50.1,41.0,52.0,44.5,37.2,89,82,71,30.04,29.92,13,3,13,0.00
2013-5-6,69.3,57.8,50.7,58.8,52.3,47.8,92,82,66,30.03,29.91,11,3,11,0.00
2013-5-7,79.0,63.3,44.8,62.1,53.0,41.9,93,71,50,30.04,29.90,10,1,10,0.00
2013-5-8,74.7,61.8,48.7,63.0,55.0,45.3,91,79,64,30.02,29.84,7,1,7,0.03
2013-5-9,77.2,65.8,57.9,64.8,58.9,53.8,92,79,62,29.94,29.81,19,4,19,0.90
2013-5-10,66.7,60.7,50.5,60.8,56.1,46.8,92,85,75,30.03,29.85,9,1,9,0.00
2013-5-11,71.8,58.4,44.2,58.6,47.2,37.8,93,69,39,30.19,30.00,13,2,13,0.00
2013-5-12,69.3,53.8,36.1,46.4,40.1,31.8,88,63,37,30.25,30.08,9,1,9,0.00
2013-5-13,80.8,62.9,44.2,59.2,49.4,40.3,88,64,42,30.17,29.95,12,2,12,0.00
2013-5-14,88.9,73.0,56.5,62.1,55.2,50.9,83,56,34,29.99,29.83,16,-296,16,0.00
2013-5-15,81.1,68.4,57.0,68.7,59.7,49.8,90,74,61,29.95,29.82,17,-104,17,0.19
2013-5-16,66.4,63.9,62.1,62.4,60.7,59.0,92,89,84,29.87,29.80,8,-34,8,0.06
2013-5-17,80.1,68.6,61.9,66.7,62.6,58.8,93,82,62,29.91,29.79,6,-656,6,0.00
2013-5-18,83.1,73.4,63.7,73.9,67.9,59.9,91,83,73,29.92,29.75,8,-220,8,0.00
2013-5-19,87.1,77.3,70.0,73.0,68.8,65.5,92,77,52,29.81,29.57,20,3,20,0.03
2013-5-20,75.4,68.1,61.7,69.4,63.6,57.6,92,86,70,29.81,29.64,19,2,19,1.11
2013-5-21,70.2,64.3,60.8,63.7,60.1,56.7,92,86,75,29.81,29.54,18,3,18,0.00
2013-5-22,72.5,64.0,55.4,60.4,56.9,52.7,92,79,64,29.91,29.72,14,4,14,0.00
2013-5-23,74.7,63.2,52.0,62.2,55.9,48.9,92,78,64,30.14,29.91,9,1,9,0.00
2013-5-24,74.3,63.9,53.4,54.1,50.6,46.6,87,64,42,30.26,30.11,8,3,8,0.00
2013-5-25,81.0,68.1,55.9,66.0,56.5,45.5,76,66,58,30.20,29.99,10,2,10,0.00
2013-5-26,84.7,74.3,63.5,69.8,64.3,58.8,85,72,55,30.09,29.89,14,3,14,0.00
2013-5-27,83.7,74.8,66.6,71.6,66.3,61.3,86,75,65,29.94,29.70,23,4,23,0.00
2013-5-28,84.7,74.8,70.2,71.8,66.4,63.3,82,75,60,29.81,29.69,14,3,14,0.00
2013-5-29,81.1,75.2,68.9,68.9,65.9,63.0,84,73,62,29.85,29.67,12,3,12,0.00
2013-5-30,81.5,71.6,62.8,70.2,64.3,59.5,91,79,61,29.82,29.66,23,4,23,2.47
2013-5-31,83.3,75.8,65.8,74.8,70.1,61.2,92,83,74,29.86,29.64,14,-777,14,1.09
2013-6-1,75.9,68.5,63.3,66.4,63.0,57.0,93,83,65,29.99,29.69,14,-550,14,1.36
2013-6-2,63.9,60.7,55.8,58.6,55.9,52.5,89,84,80,30.06,29.96,5,-117,5,0.00
2013-6-3,76.3,62.7,47.1,60.8,54.5,44.6,94,76,56,30.11,29.89,7,1,7,0.00
2013-6-4,73.9,66.8,60.4,65.1,60.1,55.8,85,79,70,30.00,29.90,7,2,7,0.00
2013-6-5,73.6,66.0,61.7,68.2,62.2,57.7,91,88,82,29.99,29.82,8,0,8,0.19
2013-6-6,71.4,63.8,57.7,66.9,60.3,54.9,94,89,78,29.95,29.86,5,0,5,0.00
2013-6-7,76.1,63.6,52.2,62.1,56.5,49.8,93,79,58,29.98,29.88,8,0,8,0.00
2013-6-8,80.1,66.4,50.0,62.1,56.4,46.9,93,72,51,29.98,29.82,12,2,12,0.00
2013-6-9,80.4,68.9,60.8,67.6,61.1,57.6,91,77,58,29.93,29.79,11,2,11,0.46
2013-6-10,90.1,74.1,60.1,75.9,66.0,56.5,89,77,62,29.90,29.78,11,2,11,0.00
2013-6-11,93.7,80.1,66.7,73.6,68.5,63.1,90,70,44,29.95,29.85,17,3,17,0.00
2013-6-12,90.9,81.6,71.8,74.1,70.5,66.9,87,70,54,29.94,29.81,23,6,23,0.00
2013-6-13,85.5,77.4,68.9,71.6,67.5,60.4,81,72,61,30.01,29.86,13,2,13,0.00
2013-6-14,87.1,76.3,62.8,73.9,67.3,59.2,90,74,61,30.03,29.88,9,1,9,0.00
2013-6-15,76.1,71.2,67.1,69.8,66.2,63.5,93,84,73,30.07,29.91,15,1,15,1.71
2013-6-16,89.2,75.4,67.6,76.5,69.8,62.6,94,84,64,29.99,29.86,12,2,12,0.19
2013-6-17,73.0,69.4,64.9,70.3,66.5,62.1,92,90,86,29.95,29.81,9,-20,9,0.27
2013-6-18,85.8,70.9,59.2,72.0,64.5,57.0,94,81,59,29.99,29.88,5,-328,5,0.00
2013-6-19,84.7,74.3,61.7,70.0,65.5,59.0,93,75,57,30.04,29.88,6,1,6,0.00
2013-6-20,87.3,77.1,63.7,72.5,68.0,60.6,92,75,59,30.03,29.88,11,2,11,0.00
2013-6-21,90.5,81.3,72.0,77.0,72.3,67.1,87,75,62,30.02,29.90,17,2,17,0.00
2013-6-22,88.9,80.9,73.4,76.5,72.6,68.7,89,77,62,30.02,29.86,15,2,15,0.00
2013-6-23,90.1,80.8,71.8,76.5,71.8,67.6,88,75,58,29.95,29.82,13,2,13,0.00
2013-6-24,91.2,81.4,72.9,75.2,71.5,67.6,85,73,57,29.98,29.84,15,-154,15,0.00
2013-6-25,89.2,80.5,73.4,74.1,70.4,67.5,85,72,57,29.92,29.74,19,3,19,0.00
2013-6-26,93.7,83.3,74.1,78.8,73.5,68.2,85,73,60,29.82,29.73,16,4,16,0.00
2013-6-27,94.5,84.1,73.0,81.5,76.7,69.6,91,79,65,29.89,29.75,9,2,9,0.00
2013-6-28,89.1,78.8,70.7,77.4,69.6,62.4,92,75,53,29.86,29.72,19,0,19,0.33
2013-6-29,84.6,74.6,65.1,64.9,61.2,59.0,84,65,45,29.81,29.68,14,1,14,0.00
2013-6-30,75.4,69.4,63.5,64.6,61.4,58.8,88,76,67,29.92,29.76,3,0,3,0.00
2013-7-1,80.4,69.7,60.4,64.6,60.1,54.7,89,73,55,30.01,29.90,3,0,3,0.00
2013-7-2,80.2,67.1,55.2,61.5,56.8,51.1,89,71,48,30.05,29.96,5,0,5,0.00
2013-7-3,83.7,68.1,55.2,64.2,58.0,51.6,90,72,47,30.08,29.92,12,0,12,0.63
2013-7-4,84.4,69.9,58.1,66.2,60.9,54.9,92,75,50,30.04,29.91,6,0,6,0.00
2013-7-5,87.3,73.6,59.0,67.5,62.1,55.4,90,69,48,30.00,29.86,5,0,5,0.00
2013-7-6,89.1,77.1,65.5,69.4,65.3,60.4,86,68,49,30.00,29.83,5,0,5,0.00
2013-7-7,91.9,79.7,68.0,71.6,67.3,62.4,85,67,46,29.99,29.88,10,0,10,0.00
2013-7-8,91.6,79.3,69.1,74.5,69.5,63.7,86,73,54,30.04,29.92,3,0,3,0.00
2013-7-9,94.5,82.5,70.7,75.7,71.5,66.2,87,71,52,30.00,29.85,13,1,13,0.00
2013-7-10,90.9,80.5,69.8,78.3,72.9,65.5,91,79,62,29.99,29.83,10,-352,10,1.30
2013-7-11,88.7,79.9,72.5,73.8,69.3,63.0,90,71,48,29.99,29.88,4,-3,4,0.00
2013-7-12,89.1,76.5,67.3,66.6,62.3,59.0,76,63,41,30.02,29.88,5,1,5,0.00
2013-7-13,82.6,73.8,63.0,66.4,61.7,56.5,80,66,51,30.04,29.94,5,0,5,0.00
2013-7-14,86.9,75.5,62.6,65.8,62.3,57.6,87,65,44,30.03,29.93,5,1,6,0.00
2013-7-15,87.3,77.8,70.5,72.1,68.2,62.4,88,73,58,30.13,30.01,13,1,13,0.19
2013-7-16,86.5,76.5,69.8,75.9,71.3,66.7,93,85,64,30.24,30.12,4,0,4,0.19
2013-7-17,90.3,78.4,69.1,76.5,71.8,66.4,93,81,63,30.30,30.12,4,0,4,0.03
2013-7-18,94.5,81.6,69.4,76.5,71.3,65.8,90,72,53,30.15,29.93,3,-218,3,0.00
2013-7-19,93.0,80.0,70.3,76.3,70.8,66.0,88,74,56,29.98,29.83,5,0,5,0.00
2013-7-20,88.0,77.2,70.7,75.6,69.8,66.7,91,79,63,29.94,29.77,19,0,19,1.11
2013-7-21,80.4,74.3,70.2,75.0,70.8,68.0,94,89,81,29.90,29.76,0,0,0,0.11
2013-7-22,84.4,76.4,66.7,73.4,70.2,63.7,93,82,66,29.87,29.75,15,1,15,0.24
2013-7-23,93.7,81.1,69.8,80.2,73.2,65.8,90,78,60,29.83,29.70,13,1,13,0.08
2013-7-24,85.1,76.6,70.3,73.6,69.2,63.1,89,78,57,30.00,29.81,4,0,4,0.00
2013-7-25,85.5,74.0,62.2,70.5,64.8,59.0,90,74,58,30.04,29.97,3,0,3,0.00
2013-7-26,73.8,69.6,66.2,67.8,65.7,64.0,93,87,74,30.01,29.93,1,0,1,1.74
2013-7-27,70.0,66.5,64.8,64.9,64.2,63.0,94,92,83,30.05,29.94,7,0,7,0.03
2013-7-28,70.7,68.3,67.3,64.0,63.2,62.8,86,84,79,30.05,30.01,0,0,0,0.00
2013-7-29,82.8,73.5,66.2,73.8,68.1,62.6,90,83,73,30.09,29.92,4,-362,4,0.17
2013-7-30,80.2,74.4,70.0,76.1,71.7,67.8,95,91,86,30.01,29.86,8,-104,8,2.44
2013-7-31,85.5,76.8,70.7,75.9,72.2,66.9,95,86,70,30.02,29.90,0,0,0,0.00
2013-8-1,85.6,74.5,63.5,70.2,66.5,61.2,94,77,57,30.09,29.91,3,0,3,0.00
2013-8-2,86.5,75.6,70.9,77.0,70.1,65.8,87,83,73,29.95,29.80,5,0,5,0.00
2013-8-3,84.4,76.4,68.9,75.2,71.7,66.7,94,86,73,30.04,29.78,12,0,12,1.06
2013-8-4,75.7,72.8,70.3,72.3,70.5,68.2,94,93,88,30.15,29.99,2,-329,2,1.46
2013-8-5,86.0,76.1,70.9,79.9,73.0,69.1,95,90,76,30.04,29.81,4,-110,4,0.06
2013-8-6,81.9,75.1,70.9,77.2,72.1,68.5,94,91,85,29.92,29.78,7,-691,7,0.33
2013-8-7,85.1,76.0,70.9,78.1,72.9,68.5,95,90,78,29.96,29.77,14,-432,14,0.84
2013-8-8,80.8,75.3,70.5,74.5,71.8,68.7,95,89,79,29.98,29.84,2,-168,2,0.57
2013-8-9,78.8,74.4,71.2,73.6,70.9,67.8,94,89,81,30.04,29.92,0,-411,0,0.11
2013-8-10,82.6,74.7,68.4,70.7,67.9,66.0,92,80,60,30.13,30.02,1,-805,1,0.00
2013-8-11,82.4,75.3,68.7,74.5,70.1,65.5,92,84,75,30.11,29.99,6,-208,6,0.00
2013-8-12,82.9,74.7,70.3,75.4,71.1,67.1,94,89,75,30.05,29.92,6,0,6,0.76
2013-8-13,79.0,72.4,66.2,70.2,67.0,62.2,94,84,70,30.08,29.98,3,0,3,0.00
2013-8-14,75.6,68.6,62.4,63.3,59.6,55.9,89,74,57,30.15,30.07,5,0,5,0.00
2013-8-15,74.1,65.2,54.7,59.7,56.3,51.1,91,74,57,30.16,30.02,3,0,3,0.00
2013-8-16,72.0,65.0,58.6,61.9,58.3,55.4,90,79,68,30.16,30.07,2,0,2,0.00
2013-8-17,76.8,66.3,55.4,63.9,59.4,52.9,93,79,62,30.17,30.05,4,0,4,0.00
2013-8-18,78.8,69.1,59.4,67.6,62.6,56.5,93,81,63,30.16,30.04,4,0,4,0.00
2013-8-19,84.4,71.1,59.5,69.4,64.2,56.8,94,80,59,30.12,29.98,2,0,2,0.00
2013-8-20,85.1,72.2,60.8,70.5,65.2,58.1,94,80,59,30.11,29.99,2,0,2,0.00
2013-8-21,88.0,74.1,61.3,73.2,67.1,58.6,94,80,59,30.12,30.00,0,0,0,0.00
2013-8-22,86.5,76.2,65.3,73.6,68.9,62.6,93,79,62,30.13,29.98,0,0,0,0.00
2013-8-23,88.0,76.4,65.5,74.8,69.4,62.8,94,80,61,30.10,29.98,3,0,3,0.00
2013-8-24,87.6,79.1,71.2,74.5,70.4,67.5,90,76,55,30.14,30.04,4,0,4,0.00
2013-8-25,88.7,78.6,68.7,75.4,70.2,65.3,91,77,56,30.22,30.09,3,0,3,0.00
2013-8-26,89.8,78.8,71.2,75.6,71.7,67.5,92,80,62,30.16,30.01,3,0,3,0.00
2013-8-27,88.3,78.3,69.4,72.0,69.5,65.7,90,76,55,30.07,29.94,8,0,8,0.00
2013-8-28,92.3,77.6,65.5,74.7,69.4,62.8,93,77,56,30.04,29.92,9,0,9,0.00
2013-8-29,93.9,79.7,67.8,77.2,71.8,64.8,93,78,57,30.03,29.89,0,0,0,0.00
2013-8-30,94.1,81.4,70.9,75.4,72.3,67.8,92,76,51,29.96,29.79,8,0,8,0.00
2013-8-31,95.2,81.4,69.8,75.9,71.7,66.7,92,74,52,29.86,29.70,9,0,9,0.00
2013-9-1,88.3,77.3,72.7,73.4,70.6,68.5,90,80,60,29.87,29.73,15,0,15,0.00
2013-9-2,85.5,74.9,65.3,69.1,66.0,59.5,90,75,54,29.95,29.84,3,0,3,0.00
2013-9-3,85.3,70.6,57.6,66.0,60.5,53.8,91,72,46,30.03,29.91,2,0,2,0.00
2013-9-4,85.6,70.2,56.3,66.2,60.4,52.7,90,73,46,30.11,29.99,3,0,3,0.00
2013-9-5,85.3,70.9,57.7,66.2,60.9,54.1,91,73,47,30.18,30.04,3,0,3,0.00
2013-9-6,86.9,71.6,59.4,67.3,62.0,55.4,92,73,47,30.12,29.95,2,0,2,0.00
2013-9-7,91.2,74.9,60.8,72.5,65.6,56.8,92,75,52,30.02,29.86,1,0,1,0.00
2013-9-8,90.9,76.4,65.8,76.1,69.3,62.4,91,80,59,29.95,29.81,7,0,7,0.00
2013-9-9,92.8,78.9,66.9,71.6,67.9,63.9,91,72,44,29.96,29.84,11,0,11,0.00
2013-9-10,93.0,77.3,64.4,70.3,66.0,60.8,90,71,42,30.08,29.94,12,0,12,0.00
2013-9-11,91.9,77.3,65.3,72.5,67.5,61.7,90,74,52,30.12,29.96,0,0,0,0.00
2013-9-12,87.8,76.4,68.0,73.0,68.1,63.9,89,76,60,30.06,29.93,2,0,2,0.00
2013-9-13,75.0,67.6,56.5,64.8,54.6,50.7,83,64,49,30.09,29.97,4,0,4,0.00
2013-9-14,76.5,64.8,50.2,56.5,52.4,45.1,85,66,46,30.08,29.93,4,0,4,0.00
2013-9-15,83.8,70.3,58.1,67.6,58.9,50.2,77,68,55,30.03,29.93,5,0,5,0.00
2013-9-16,73.6,68.8,66.0,68.2,64.4,61.0,91,86,77,30.17,30.01,4,0,4,0.08
2013-9-17,77.0,70.0,63.5,69.1,65.3,61.5,94,85,73,30.13,29.96,5,0,5,0.90
2013-9-18,80.4,73.1,68.9,72.0,68.3,64.6,92,85,74,29.98,29.88,4,0,4,0.54
2013-9-19,88.3,76.6,70.7,73.0,69.3,66.0,89,79,59,29.96,29.82,15,1,15,0.00
2013-9-20,73.8,65.9,56.3,68.4,62.4,52.5,93,88,80,29.99,29.84,4,0,8,1.17
2013-9-21,73.6,59.4,48.7,57.0,51.7,46.0,93,77,53,30.02,29.88,2,0,2,0.00
2013-9-22,74.3,59.6,45.1,56.3,50.3,42.1,92,73,49,29.98,29.83,5,0,5,0.00
2013-9-23,75.7,62.8,48.7,58.1,53.4,45.0,91,73,51,29.98,29.75,7,1,7,0.00
2013-9-24,76.1,66.2,58.3,61.5,58.1,54.3,89,76,58,29.88,29.76,11,0,11,0.00
2013-9-25,77.4,64.4,53.6,65.1,58.1,50.4,92,81,62,29.87,29.76,1,0,1,0.00
2013-9-26,80.4,66.9,54.0,65.5,59.1,51.1,93,77,56,29.94,29.82,6,0,6,0.00
2013-9-27,81.9,72.8,64.9,67.6,63.9,61.3,89,75,53,29.99,29.86,5,1,5,0.00
2013-9-28,75.0,68.3,61.5,67.3,63.5,58.8,92,85,76,30.05,29.86,11,0,11,0.41
2013-9-29,72.9,62.4,55.4,59.0,55.7,51.4,93,80,53,30.06,29.94,4,0,4,0.03
2013-9-30,75.4,66.0,54.3,66.6,61.5,50.9,94,86,70,29.94,29.80,4,0,4,0.00
2013-10-1,82.6,71.0,64.0,71.1,65.3,60.4,94,83,62,29.98,29.85,10,0,10,0.00
2013-10-2,79.3,70.8,62.2,71.8,66.4,59.2,94,86,73,29.99,29.86,8,0,8,0.00
2013-10-3,83.1,73.7,66.4,72.0,67.8,64.0,93,82,64,29.91,29.76,11,0,11,0.00
2013-10-4,82.2,74.4,68.4,72.0,67.9,64.2,92,81,66,29.90,29.78,11,0,11,0.00
2013-10-5,72.5,58.3,48.2,68.2,55.5,46.2,93,91,83,30.05,29.83,10,0,10,2.17
2013-10-6,60.1,51.6,44.1,47.7,44.7,40.8,93,78,60,29.99,29.90,17,2,17,0.03
2013-10-7,69.4,55.2,44.1,53.6,47.4,40.6,89,76,55,30.18,29.97,2,0,2,0.00
2013-10-8,70.0,56.5,43.2,55.0,48.3,40.5,93,76,56,30.17,30.02,8,1,8,0.00
2013-10-9,72.1,57.8,44.6,54.9,49.0,41.2,91,74,51,30.13,30.00,4,0,4,0.00
2013-10-10,73.6,60.0,47.1,60.3,52.5,43.7,93,77,55,30.14,29.92,3,0,3,0.00
2013-10-11,76.1,66.2,57.6,65.8,60.3,54.5,92,82,68,29.93,29.80,7,1,7,0.00
2013-10-12,69.1,61.9,51.1,61.3,56.6,47.3,93,83,65,30.18,29.85,7,0,7,0.38
2013-10-13,68.7,59.8,50.7,50.5,47.1,43.5,89,64,47,30.35,30.18,9,1,9,0.00
2013-10-14,64.9,60.2,55.4,59.9,51.5,43.9,89,73,62,30.25,29.94,6,1,6,0.00
2013-10-15,63.5,59.0,52.0,60.3,55.6,47.8,93,88,80,30.04,29.83,6,0,6,0.41
2013-10-16,57.4,50.4,43.2,48.7,44.5,39.4,88,81,70,30.13,29.97,1,0,1,0.00
2013-10-17,62.8,51.9,44.2,48.4,44.9,40.1,91,78,56,30.06,29.92,10,0,10,0.00
2013-10-18,56.3,46.6,39.7,48.9,42.1,36.9,92,85,75,30.09,29.96,3,0,2,0.22
2013-10-19,57.7,44.7,37.0,44.2,38.4,34.2,90,80,54,30.17,29.98,13,0,13,0.00
2013-10-20,68.2,51.2,38.1,46.6,41.0,34.9,91,71,39,30.01,29.85,17,2,17,0.00
2013-10-21,56.5,46.7,37.4,45.3,40.6,33.3,89,80,62,30.15,29.95,7,0,7,0.00
2013-10-22,63.5,48.0,33.4,49.3,39.5,30.2,91,74,52,30.09,29.86,15,2,15,0.00
2013-10-23,56.1,44.5,34.5,42.4,37.0,29.8,87,75,59,30.21,29.99,1,0,1,0.00
2013-10-24,52.5,43.4,34.3,39.2,35.0,28.8,87,73,51,30.44,30.08,6,0,6,0.00
2013-10-25,54.3,41.3,28.8,34.7,30.0,25.0,89,66,42,30.51,30.20,11,0,11,0.00
2013-10-26,64.4,50.2,39.4,52.9,42.5,31.6,83,75,65,30.21,30.03,10,0,10,0.00
2013-10-27,65.3,47.0,32.4,44.8,37.3,28.9,89,71,44,30.12,29.94,4,0,4,0.00
2013-10-28,65.7,51.8,35.8,56.3,46.2,31.6,94,82,63,30.18,30.03,6,0,6,0.00
2013-10-29,64.0,59.4,54.3,62.2,57.4,50.0,95,93,85,30.12,29.93,8,1,8,2.09
2013-10-30,66.6,63.8,61.5,64.2,61.8,59.5,95,93,90,30.00,29.78,17,1,17,0.52
2013-10-31,66.4,58.5,47.8,64.8,56.2,45.3,96,92,86,29.78,29.42,17,1,17,0.38
2013-11-1,62.4,51.8,44.8,49.1,45.0,40.6,93,79,57,29.96,29.71,16,1,16,0.00
2013-11-2,55.6,45.9,35.6,43.3,39.1,31.5,87,78,61,30.23,29.95,13,0,13,0.00
2013-11-3,58.1,45.3,30.6,43.0,36.5,27.7,93,73,52,30.30,30.01,14,2,14,0.00
2013-11-4,59.9,52.7,48.4,49.8,45.1,40.3,88,76,69,30.17,30.00,10,2,10,0.00
2013-11-5,58.8,55.6,52.3,57.0,53.5,49.5,94,93,88,30.13,29.90,11,2,11,0.35
2013-11-6,59.5,45.8,38.5,57.7,42.9,34.2,94,90,83,30.36,29.84,17,1,17,0.38
2013-11-7,58.6,41.8,29.8,44.6,35.1,27.5,93,79,53,30.53,30.32,12,0,12,0.00
2013-11-8,64.2,46.8,30.7,45.5,36.2,27.9,93,69,40,30.37,30.01,15,1,15,0.00
2013-11-9,65.7,51.2,40.8,49.5,41.9,35.8,85,71,54,30.27,30.05,12,0,12,0.00
2013-11-10,63.5,48.0,35.8,40.8,37.0,32.5,90,68,40,30.40,30.26,5,0,5,0.00
2013-11-11,61.3,50.0,37.9,51.3,43.6,33.8,87,79,67,30.45,30.12,8,0,8,0.00
2013-11-12,38.3,30.2,20.7,34.0,21.3,15.3,86,70,51,30.82,30.45,7,1,7,0.00
2013-11-13,49.8,32.6,17.1,26.2,19.8,13.1,87,62,35,30.73,30.30,10,1,10,0.00
2013-11-14,54.9,41.6,26.4,29.1,24.0,18.0,72,51,31,30.31,30.00,16,1,16,0.00
2013-11-15,57.0,48.4,42.8,47.5,40.3,28.8,86,74,54,30.05,29.82,10,1,10,0.03
2013-11-16,70.3,61.1,51.3,61.7,55.5,47.3,90,82,67,29.84,29.53,20,3,20,0.02
2013-11-17,71.8,64.4,48.0,63.9,47.1,27.9,85,56,31,30.07,29.42,26,8,26,0.03
2013-11-18,58.8,44.9,34.2,41.0,32.3,27.5,82,63,39,30.33,30.05,4,0,4,0.00
2013-11-19,56.3,45.0,32.5,35.8,30.3,25.5,86,59,38,30.31,30.06,10,2,10,0.00
2013-11-20,58.1,48.5,38.8,35.8,31.9,25.2,76,54,40,30.07,29.88,13,2,13,0.06
2013-11-21,53.6,50.1,43.3,48.6,43.9,34.3,90,81,48,30.23,29.95,9,1,9,0.84
2013-11-22,43.0,32.1,30.0,39.4,29.5,27.1,92,90,88,30.57,30.23,7,1,7,0.03
2013-11-23,37.9,29.8,18.7,28.0,21.9,11.1,88,73,56,30.77,30.53,10,1,10,0.00
2013-11-24,29.3,22.6,14.5,14.9,11.8,8.6,78,64,49,30.73,30.36,6,1,6,0.00
2013-11-25,36.1,32.0,28.4,28.9,22.8,13.8,79,69,54,30.36,30.16,6,0,6,0.00
2013-11-26,42.6,33.3,23.5,32.2,25.5,14.2,84,73,60,30.35,30.11,13,1,13,0.00
2013-11-27,34.3,24.1,17.4,19.2,14.3,10.8,78,67,51,30.48,30.29,8,0,8,0.00
2013-11-28,51.1,33.8,21.0,32.9,23.0,14.7,79,65,49,30.47,30.26,16,1,16,0.00
2013-11-29,53.8,37.0,21.6,34.7,26.9,17.4,88,68,46,30.52,30.30,6,0,6,0.00
2013-11-30,59.5,43.1,31.5,44.2,34.4,24.4,80,72,56,30.33,30.08,15,1,15,0.00
2013-12-1,54.9,43.1,30.6,49.6,39.2,27.1,91,86,80,30.15,29.89,3,0,3,0.00
2013-12-2,58.5,46.9,35.6,50.2,42.7,32.4,92,86,72,29.90,29.64,11,0,11,0.00
2013-12-3,61.3,47.5,31.6,53.4,43.7,29.1,94,87,72,29.68,29.53,8,1,8,0.00
2013-12-4,62.2,48.3,31.8,52.7,43.8,27.7,93,85,63,29.96,29.54,18,-15,18,0.00
2013-12-5,31.8,23.7,18.9,27.9,18.7,15.4,86,81,75,30.35,29.96,13,1,13,0.00
2013-12-6,20.5,17.7,11.3,17.6,13.4,4.8,89,83,74,30.62,30.28,2,0,2,0.00
2013-12-7,21.2,14.2,5.7,13.3,7.0,0.7,81,73,61,30.75,30.36,6,1,6,0.00
2013-12-8,27.9,22.8,18.1,25.2,18.5,10.4,91,84,67,30.36,29.98,10,1,10,0.00
2013-12-9,27.1,22.4,18.5,24.4,18.1,15.3,90,84,75,30.40,30.16,13,0,13,0.00
2013-12-10,31.1,16.5,0.9,20.3,10.7,-2.6,89,78,64,30.49,30.30,2,-21,2,0.08
2013-12-11,34.0,18.2,5.2,25.5,11.9,1.2,90,76,61,30.70,30.34,6,-55,6,0.13
2013-12-12,40.1,21.8,5.2,25.5,13.8,0.9,85,72,55,30.69,30.30,8,0,8,0.06
2013-12-13,34.0,31.1,20.7,31.5,27.1,14.4,92,85,74,30.30,29.86,7,0,7,0.54
2013-12-14,33.3,30.4,26.1,31.5,28.0,22.6,93,90,87,30.28,29.84,14,1,14,0.08
2013-12-15,43.7,30.4,16.7,34.3,25.5,13.8,91,82,68,30.29,30.06,12,0,12,0.27
2013-12-16,57.9,43.4,30.6,41.4,33.6,25.5,84,69,50,30.17,29.99,10,0,10,0.00
2013-12-17,51.6,35.3,25.2,38.1,28.0,20.5,90,76,53,30.38,30.13,12,1,12,0.00
2013-12-18,61.7,42.2,23.5,41.2,30.9,19.2,87,66,41,30.32,29.90,15,1,15,0.00
2013-12-19,57.4,52.1,40.8,50.5,45.2,33.1,85,77,70,29.92,29.68,15,1,15,0.00
2013-12-20,58.1,42.9,30.7,54.7,39.6,28.2,90,88,82,29.92,29.67,14,1,14,0.00
2013-12-21,34.3,32.6,30.7,32.2,30.3,28.2,92,91,90,29.83,29.52,3,0,3,0.59
2013-12-22,34.7,28.9,24.4,32.5,26.1,21.2,92,89,87,30.38,29.66,15,3,15,0.03
2013-12-23,25.7,20.8,16.7,21.6,16.7,12.6,88,84,79,30.67,30.36,9,0,9,0.00
2013-12-24,34.0,22.4,10.2,23.9,15.9,6.6,87,76,64,30.62,30.26,13,-37,13,0.00
2013-12-25,38.3,30.5,25.0,32.7,25.5,20.7,88,82,75,30.44,30.27,13,0,13,0.00
2013-12-26,49.8,31.7,19.6,35.8,24.6,16.5,92,77,51,30.45,30.25,12,-10,12,0.00
2013-12-27,57.7,35.2,20.5,37.9,25.8,16.7,89,71,43,30.42,30.27,11,-10,11,0.00
2013-12-28,54.5,36.1,21.4,38.1,26.9,17.2,89,71,44,30.30,29.92,11,0,11,0.00
2013-12-29,41.9,27.8,18.5,36.1,21.7,11.7,83,77,74,30.30,29.91,13,-3,13,0.00
2013-12-30,35.6,22.1,10.9,20.1,12.9,5.4,79,68,51,30.35,30.22,4,0,4,0.00
2013-12-31,54.1,36.5,16.9,31.6,22.2,11.1,83,58,36,30.40,30.12,14,-194,14,0.00
2014-1-1,49.5,36.0,20.7,31.8,25.0,16.3,83,65,49,30.15,29.85,12,-78,12,0.00
2014-1-2,20.7,13.5,3.9,16.0,8.2,-1.7,84,79,69,30.53,30.14,14,-363,14,0.06